Time;durP1;ratioP1;P1;durP2;ratioP2;P2;SDS_P1;SDS_P2;PMS_P1;PMS_P2;Temp;Humidity;BMP_temperature;BMP_pressure;BME280_temperature;BME280_humidity;BME280_pressure;Samples;Min_cycle;Max_cycle;Signal;HPM_P1;HPM_P2
2022/01/30 00:00:25;;;;;;;0.32;0.17;;;5.70;89.80;;;;;;5038839;28;20026;-77
2022/01/30 00:02:54;;;;;;;1.50;0.30;;;5.70;89.90;;;;;;5037729;28;20048;-77
2022/01/30 00:05:19;;;;;;;0.88;0.30;;;5.60;90.00;;;;;;5036248;28;20086;-79
2022/01/30 00:07:45;;;;;;;0.45;0.40;;;5.60;90.40;;;;;;5033740;28;20416;-79
2022/01/30 00:10:13;;;;;;;0.30;0.30;;;5.50;90.50;;;;;;5015861;28;20566;-79
2022/01/30 00:12:48;;;;;;;0.60;0.40;;;5.50;90.60;;;;;;5033758;28;20393;-78
2022/01/30 00:15:16;;;;;;;0.40;0.22;;;5.50;90.90;;;;;;5036196;28;20095;-77
2022/01/30 00:17:50;;;;;;;1.85;0.50;;;5.40;91.00;;;;;;5018606;28;20483;-77
2022/01/30 00:20:25;;;;;;;0.73;0.52;;;5.50;91.20;;;;;;5040362;28;20063;-77
2022/01/30 00:25:25;;;;;;;1.05;0.63;;;5.40;90.40;;;;;;5033932;28;20470;-77
2022/01/30 00:28:01;;;;;;;2.45;0.70;;;5.50;90.50;;;;;;5033370;28;20041;-78
2022/01/30 00:30:32;;;;;;;1.55;0.90;;;5.50;90.10;;;;;;5033472;28;20041;-78
2022/01/30 00:32:58;;;;;;;1.05;0.70;;;5.50;90.30;;;;;;5033495;28;20045;-78
2022/01/30 00:35:24;;;;;;;0.82;0.52;;;5.60;90.00;;;;;;5033117;28;20456;-78
2022/01/30 00:37:49;;;;;;;1.17;0.63;;;5.50;89.80;;;;;;5033192;28;20029;-77
2022/01/30 00:40:15;;;;;;;1.10;0.60;;;5.50;89.60;;;;;;5033211;28;20033;-77
2022/01/30 00:42:40;;;;;;;0.45;0.45;;;5.60;89.70;;;;;;5033087;28;20022;-77
2022/01/30 00:45:07;;;;;;;1.08;0.47;;;5.50;89.80;;;;;;5033285;28;20033;-78
2022/01/30 00:47:32;;;;;;;0.60;0.50;;;5.50;90.00;;;;;;5033315;28;20037;-78
2022/01/30 00:49:58;;;;;;;3.75;2.20;;;5.60;89.70;;;;;;5033267;28;20021;-77
2022/01/30 00:52:24;;;;;;;0.57;0.50;;;5.60;89.40;;;;;;5033573;28;20041;-78
2022/01/30 00:54:49;;;;;;;0.90;0.40;;;5.60;88.80;;;;;;5036742;28;20017;-77
2022/01/30 00:57:15;;;;;;;1.73;0.50;;;5.60;88.80;;;;;;5019602;28;20040;-77
2022/01/30 00:59:40;;;;;;;0.30;0.30;;;5.50;88.40;;;;;;5037443;28;20025;-77
2022/01/30 01:02:06;;;;;;;1.13;0.40;;;5.50;88.60;;;;;;5037414;28;20382;-77
2022/01/30 01:04:31;;;;;;;0.55;0.45;;;5.50;88.50;;;;;;5037002;28;20064;-77
2022/01/30 01:06:57;;;;;;;1.48;0.20;;;5.50;88.30;;;;;;5036861;28;20060;-77
2022/01/30 01:09:30;;;;;;;0.47;0.40;;;5.50;88.00;;;;;;5036847;28;20431;-78
2022/01/30 01:12:26;;;;;;;0.60;0.40;;;5.50;87.90;;;;;;5036695;28;20039;-79
2022/01/30 01:25:38;;;;;;;0.43;0.40;;;5.50;87.40;;;;;;5036570;28;20060;-77
2022/01/30 01:28:04;;;;;;;0.35;0.35;;;5.50;87.20;;;;;;5018636;28;20041;-77
2022/01/30 01:30:29;;;;;;;0.57;0.40;;;5.50;87.10;;;;;;5036391;28;20047;-79
2022/01/30 01:32:55;;;;;;;0.20;0.20;;;5.60;86.80;;;;;;5036348;28;20116;-77
2022/01/30 01:35:21;;;;;;;0.30;0.30;;;5.60;86.50;;;;;;5036344;28;20022;-79
2022/01/30 01:37:52;;;;;;;1.10;0.30;;;5.60;86.50;;;;;;5036377;28;20083;-79
2022/01/30 01:40:18;;;;;;;0.68;0.40;;;5.60;86.50;;;;;;5036317;28;20067;-76
2022/01/30 01:42:44;;;;;;;0.50;0.30;;;5.60;86.40;;;;;;5036220;28;20101;-78
2022/01/30 01:45:10;;;;;;;0.68;0.40;;;5.60;86.10;;;;;;5036434;28;20021;-79
2022/01/30 01:47:36;;;;;;;0.52;0.43;;;5.60;85.40;;;;;;5036275;28;20037;-78
2022/01/30 01:50:02;;;;;;;0.30;0.30;;;5.60;85.20;;;;;;5036092;28;20017;-78
2022/01/30 01:52:28;;;;;;;0.30;0.30;;;5.60;85.20;;;;;;5036174;28;20033;-78
2022/01/30 01:54:59;;;;;;;1.08;0.68;;;5.70;85.40;;;;;;5036030;28;20021;-78
2022/01/30 01:57:27;;;;;;;1.08;0.45;;;5.80;85.00;;;;;;5036110;28;20105;-79
2022/01/30 01:59:53;;;;;;;0.35;0.35;;;5.80;84.90;;;;;;5035894;28;20052;-79
2022/01/30 02:02:21;;;;;;;1.08;0.35;;;5.70;85.00;;;;;;5035747;28;20030;-78
2022/01/30 02:04:47;;;;;;;0.57;0.30;;;5.80;84.90;;;;;;5034550;28;20021;-78
2022/01/30 02:09:42;;;;;;;0.73;0.40;;;5.80;84.20;;;;;;5035806;28;20021;-78
2022/01/30 02:12:16;;;;;;;0.80;0.57;;;5.80;84.40;;;;;;5035676;28;20128;-78
2022/01/30 02:25:50;;;;;;;0.38;0.30;;;5.80;83.80;;;;;;5012834;28;20064;-78
2022/01/30 02:28:18;;;;;;;0.90;0.50;;;5.80;83.70;;;;;;5035422;28;20060;-78
2022/01/30 02:30:56;;;;;;;0.82;0.38;;;5.80;83.70;;;;;;5035342;28;20021;-78
2022/01/30 02:33:22;;;;;;;0.68;0.35;;;5.80;83.80;;;;;;5035387;28;20017;-79
2022/01/30 02:35:48;;;;;;;0.80;0.40;;;5.80;83.90;;;;;;5035279;28;20434;-78
2022/01/30 02:38:16;;;;;;;0.40;0.20;;;5.90;83.70;;;;;;5035253;28;20030;-78
2022/01/30 02:40:42;;;;;;;0.47;0.30;;;5.90;83.60;;;;;;5035245;28;20060;-78
2022/01/30 02:43:08;;;;;;;1.38;0.45;;;5.90;83.50;;;;;;5035094;28;20026;-78
2022/01/30 02:45:36;;;;;;;0.40;0.30;;;5.90;83.60;;;;;;5035203;28;20047;-76
2022/01/30 02:50:53;;;;;;;0.82;0.35;;;5.90;83.60;;;;;;5035200;28;20100;-77
2022/01/30 02:53:24;;;;;;;0.52;0.30;;;6.00;83.30;;;;;;5034907;28;20033;-77
2022/01/30 02:55:50;;;;;;;0.40;0.30;;;6.00;83.50;;;;;;5034832;28;20383;-77
2022/01/30 02:58:16;;;;;;;0.47;0.28;;;5.90;83.80;;;;;;5034877;28;20022;-77
2022/01/30 03:00:42;;;;;;;0.57;0.32;;;5.90;83.50;;;;;;5034667;28;20458;-78
2022/01/30 03:03:07;;;;;;;0.52;0.40;;;6.00;83.70;;;;;;5034825;28;20026;-78
2022/01/30 03:05:33;;;;;;;1.13;0.32;;;6.00;84.20;;;;;;5034673;28;20390;-78
2022/01/30 03:07:58;;;;;;;2.15;0.40;;;6.00;84.20;;;;;;5016744;28;20401;-78
2022/01/30 03:10:24;;;;;;;2.17;0.38;;;5.90;84.80;;;;;;5034611;28;20032;-78
2022/01/30 03:12:50;;;;;;;0.75;0.43;;;5.90;84.60;;;;;;5034363;28;20371;-77
2022/01/30 03:15:15;;;;;;;1.38;0.40;;;6.00;85.40;;;;;;5034337;28;20124;-78
2022/01/30 03:17:41;;;;;;;0.77;0.40;;;5.90;84.50;;;;;;5016443;28;20021;-79
2022/01/30 03:20:07;;;;;;;0.40;0.30;;;6.00;84.80;;;;;;5034253;28;20022;-79
2022/01/30 03:22:34;;;;;;;1.23;0.40;;;5.90;84.30;;;;;;5034398;28;20021;-78
2022/01/30 03:24:59;;;;;;;0.60;0.60;;;5.90;84.40;;;;;;5034236;28;20418;-78
2022/01/30 03:27:25;;;;;;;0.57;0.47;;;5.90;84.30;;;;;;5034132;28;20037;-78
2022/01/30 03:30:02;;;;;;;3.22;0.52;;;5.90;84.50;;;;;;5034226;28;20026;-77
2022/01/30 03:32:28;;;;;;;0.55;0.40;;;5.80;84.50;;;;;;5034098;28;20029;-77
2022/01/30 03:34:53;;;;;;;0.50;0.32;;;5.90;84.30;;;;;;5016108;28;20018;-78
2022/01/30 03:37:19;;;;;;;2.70;0.30;;;6.00;84.20;;;;;;5034090;28;20025;-79
2022/01/30 03:39:44;;;;;;;0.63;0.40;;;6.00;83.90;;;;;;5033892;28;20021;-79
2022/01/30 03:42:10;;;;;;;0.85;0.40;;;5.90;84.00;;;;;;5033946;28;20027;-79
2022/01/30 03:44:36;;;;;;;0.40;0.40;;;6.00;83.70;;;;;;5033929;28;20041;-79
2022/01/30 03:47:02;;;;;;;1.77;0.65;;;6.00;83.30;;;;;;5033780;28;20038;-80
2022/01/30 03:49:27;;;;;;;0.57;0.30;;;5.90;83.70;;;;;;5033781;28;20032;-80
2022/01/30 03:51:53;;;;;;;0.35;0.30;;;6.00;83.60;;;;;;5033842;28;20025;-80
2022/01/30 03:54:19;;;;;;;0.77;0.30;;;5.90;83.60;;;;;;5033803;28;20022;-80
2022/01/30 03:56:44;;;;;;;0.73;0.38;;;5.90;83.70;;;;;;5033610;28;20378;-80
2022/01/30 03:59:10;;;;;;;0.20;0.20;;;5.90;83.80;;;;;;5033552;28;20030;-80
2022/01/30 04:01:37;;;;;;;2.50;0.50;;;5.90;84.00;;;;;;5033517;28;20021;-79
2022/01/30 04:04:03;;;;;;;1.50;0.60;;;5.90;84.10;;;;;;5033595;28;20025;-79
2022/01/30 04:06:29;;;;;;;1.20;0.65;;;5.90;84.00;;;;;;5033463;28;20371;-79
2022/01/30 04:08:55;;;;;;;1.23;0.40;;;5.90;84.10;;;;;;5033392;28;20095;-79
2022/01/30 04:11:22;;;;;;;0.22;0.20;;;5.90;84.10;;;;;;5033358;28;20482;-79
2022/01/30 04:13:47;;;;;;;0.13;0.13;;;5.90;84.30;;;;;;5035643;28;20021;-78
2022/01/30 04:16:14;;;;;;;1.48;0.30;;;5.90;84.50;;;;;;5039120;28;20088;-77
2022/01/30 04:18:39;;;;;;;1.25;0.70;;;5.90;84.70;;;;;;5037864;28;20029;-78
2022/01/30 04:21:05;;;;;;;0.28;0.28;;;5.80;84.90;;;;;;5033860;28;20387;-79
2022/01/30 04:23:31;;;;;;;0.50;0.40;;;5.80;85.20;;;;;;5034627;28;20025;-78
2022/01/30 04:25:56;;;;;;;0.10;0.10;;;5.80;85.10;;;;;;5033263;28;20040;-78
2022/01/30 04:28:22;;;;;;;0.10;0.10;;;5.80;84.90;;;;;;5032867;28;20032;-78
2022/01/30 04:30:48;;;;;;;0.85;0.20;;;5.80;85.10;;;;;;5033566;28;20044;-78
2022/01/30 04:33:14;;;;;;;0.40;0.20;;;5.80;85.30;;;;;;5033704;28;20617;-79
2022/01/30 04:35:40;;;;;;;1.60;0.30;;;5.80;85.40;;;;;;5033183;28;20025;-78
2022/01/30 04:41:05;;;;;;;0.60;0.35;;;5.70;86.00;;;;;;5033443;28;20026;-78
2022/01/30 04:57:40;;;;;;;1.08;0.40;;;5.60;86.70;;;;;;5032941;28;20064;-79
2022/01/30 05:03:00;;;;;;;0.98;0.47;;;5.60;87.70;;;;;;5032920;28;20036;-78
2022/01/30 05:05:54;;;;;;;1.05;0.63;;;5.60;87.80;;;;;;5033020;28;20045;-78
2022/01/30 05:08:15;;;;;;;1.98;0.50;;;5.60;87.80;;;;;;5031893;28;20084;-79
2022/01/30 05:10:40;;;;;;;0.68;0.40;;;5.50;88.10;;;;;;5032829;28;20541;-79
2022/01/30 05:13:10;;;;;;;0.65;0.47;;;5.60;88.50;;;;;;5032899;28;20030;-78
2022/01/30 05:15:36;;;;;;;0.68;0.50;;;5.60;88.60;;;;;;5014926;28;20050;-79
2022/01/30 05:18:02;;;;;;;1.55;1.02;;;5.40;89.00;;;;;;5032662;28;20034;-79
2022/01/30 05:20:29;;;;;;;6.43;2.90;;;5.50;89.30;;;;;;5032843;28;20488;-78
2022/01/30 05:22:56;;;;;;;1.52;0.70;;;5.50;89.40;;;;;;5032732;28;20040;-77
2022/01/30 05:25:22;;;;;;;0.60;0.60;;;5.50;89.40;;;;;;5032647;28;20068;-76
2022/01/30 05:27:48;;;;;;;1.38;0.60;;;5.50;89.40;;;;;;5032561;28;20054;-76
2022/01/30 05:30:14;;;;;;;1.02;0.60;;;5.50;89.50;;;;;;5032564;28;20053;-77
2022/01/30 05:32:40;;;;;;;0.50;0.38;;;5.50;89.50;;;;;;5032601;28;20524;-76
2022/01/30 05:35:06;;;;;;;0.30;0.30;;;5.50;89.60;;;;;;5032507;28;20108;-76
2022/01/30 05:37:32;;;;;;;0.20;0.20;;;5.50;89.40;;;;;;5032404;28;20022;-76
2022/01/30 05:39:58;;;;;;;1.15;0.50;;;5.50;89.30;;;;;;5034545;28;20100;-76
2022/01/30 05:42:26;;;;;;;0.80;0.40;;;5.50;89.40;;;;;;5036203;28;20025;-76
2022/01/30 05:45:13;;;;;;;0.30;0.30;;;5.50;89.60;;;;;;5036194;28;20021;-77
2022/01/30 05:47:47;;;;;;;0.50;0.38;;;5.50;89.70;;;;;;5036094;28;20074;-75
2022/01/30 05:50:14;;;;;;;0.50;0.22;;;5.50;89.70;;;;;;5036307;28;20022;-75
2022/01/30 05:52:39;;;;;;;2.70;0.40;;;5.40;89.90;;;;;;5036063;28;20025;-75
2022/01/30 05:55:05;;;;;;;1.40;0.60;;;5.40;90.20;;;;;;5036018;28;20213;-75
2022/01/30 05:57:31;;;;;;;0.90;0.68;;;5.40;90.40;;;;;;5035845;28;20459;-75
2022/01/30 05:59:56;;;;;;;3.65;1.60;;;5.40;90.40;;;;;;5035943;28;20521;-74
2022/01/30 06:02:22;;;;;;;3.80;1.95;;;5.30;90.40;;;;;;5035850;28;20524;-75
2022/01/30 06:04:47;;;;;;;1.20;0.50;;;5.20;90.50;;;;;;5035754;28;20025;-75
2022/01/30 06:07:13;;;;;;;0.52;0.50;;;5.20;90.60;;;;;;5017949;28;20052;-76
2022/01/30 06:09:39;;;;;;;0.70;0.43;;;5.30;90.50;;;;;;5035778;28;20024;-77
2022/01/30 06:12:06;;;;;;;2.17;0.63;;;5.30;90.60;;;;;;5035678;28;20030;-76
2022/01/30 06:14:32;;;;;;;1.92;0.40;;;5.30;90.70;;;;;;5035575;28;20036;-75
2022/01/30 06:16:57;;;;;;;0.57;0.38;;;5.30;90.80;;;;;;5035577;28;20025;-75
2022/01/30 06:19:23;;;;;;;0.90;0.22;;;5.30;91.00;;;;;;5035649;28;20032;-75
2022/01/30 06:21:49;;;;;;;0.52;0.40;;;5.30;90.90;;;;;;5035447;28;20021;-76
2022/01/30 06:24:15;;;;;;;0.75;0.40;;;5.30;90.80;;;;;;5035517;28;20029;-77
2022/01/30 06:26:41;;;;;;;1.67;0.60;;;5.30;90.80;;;;;;5035479;28;20044;-77
2022/01/30 06:29:06;;;;;;;1.25;0.60;;;5.30;90.80;;;;;;5035392;28;20095;-77
2022/01/30 06:31:32;;;;;;;3.45;1.73;;;5.30;90.90;;;;;;5035312;28;20025;-77
2022/01/30 06:33:58;;;;;;;1.33;0.90;;;5.30;90.80;;;;;;5035494;28;20429;-77
2022/01/30 06:36:24;;;;;;;0.82;0.55;;;5.30;90.90;;;;;;5035238;28;20026;-77
2022/01/30 06:38:51;;;;;;;1.00;0.65;;;5.30;91.00;;;;;;5035545;28;20040;-78
2022/01/30 06:41:17;;;;;;;1.55;0.40;;;5.30;91.10;;;;;;5035778;28;20023;-78
2022/01/30 06:43:42;;;;;;;1.02;0.55;;;5.30;91.10;;;;;;5048700;28;20038;-77
2022/01/30 06:46:10;;;;;;;0.82;0.68;;;5.20;90.80;;;;;;5059402;28;20155;-77
2022/01/30 06:48:37;;;;;;;3.03;1.60;;;5.20;90.70;;;;;;5056285;28;20081;-77
2022/01/30 06:51:04;;;;;;;6.78;3.70;;;5.20;90.70;;;;;;5059425;28;20029;-76
2022/01/30 06:53:30;;;;;;;1.52;0.90;;;5.20;90.40;;;;;;5059075;28;20009;-76
2022/01/30 06:55:56;;;;;;;0.70;0.43;;;5.20;90.00;;;;;;5051495;28;20022;-77
2022/01/30 06:58:21;;;;;;;2.33;0.98;;;5.10;90.20;;;;;;5042260;28;20075;-77
2022/01/30 07:00:47;;;;;;;1.70;1.08;;;5.00;90.40;;;;;;5022413;28;20030;-77
2022/01/30 07:03:13;;;;;;;2.22;1.13;;;5.00;90.50;;;;;;5038449;28;20096;-77
2022/01/30 07:05:38;;;;;;;1.60;0.88;;;4.90;91.10;;;;;;5035906;28;20022;-78
2022/01/30 07:08:04;;;;;;;1.40;0.80;;;5.00;91.00;;;;;;5034790;28;20116;-77
2022/01/30 07:10:29;;;;;;;3.33;1.40;;;5.00;90.70;;;;;;5034924;28;20049;-77
2022/01/30 07:12:55;;;;;;;4.88;1.98;;;5.00;90.30;;;;;;5034442;28;20025;-77
2022/01/30 07:15:20;;;;;;;2.10;0.80;;;5.00;90.20;;;;;;5034462;28;20045;-77
2022/01/30 07:17:46;;;;;;;1.58;0.80;;;5.10;90.00;;;;;;5034554;28;20072;-76
2022/01/30 07:20:12;;;;;;;2.97;1.02;;;5.10;89.50;;;;;;5034592;28;20393;-76
2022/01/30 07:22:38;;;;;;;1.85;1.05;;;5.10;89.60;;;;;;5016661;28;20030;-78
2022/01/30 07:25:07;;;;;;;6.95;1.63;;;5.10;89.50;;;;;;5034409;28;20081;-77
2022/01/30 07:27:35;;;;;;;3.00;1.45;;;5.00;89.70;;;;;;5034313;28;20064;-77
2022/01/30 07:30:01;;;;;;;5.93;1.88;;;5.00;89.70;;;;;;5034197;28;20021;-77
2022/01/30 07:32:26;;;;;;;4.95;1.20;;;5.00;89.80;;;;;;5016712;28;20055;-77
2022/01/30 07:34:52;;;;;;;6.10;1.42;;;4.90;89.90;;;;;;5034051;28;20470;-77
2022/01/30 07:37:19;;;;;;;2.42;1.30;;;4.90;90.50;;;;;;5034198;28;20470;-76
2022/01/30 07:39:45;;;;;;;3.75;1.30;;;4.90;90.30;;;;;;5033999;28;20188;-78
2022/01/30 07:42:11;;;;;;;4.93;1.52;;;4.90;90.30;;;;;;5034051;28;20025;-75
2022/01/30 07:44:36;;;;;;;7.40;1.38;;;4.90;90.30;;;;;;5034129;28;20018;-78
2022/01/30 07:47:04;;;;;;;6.35;1.17;;;4.90;90.10;;;;;;5033836;28;20449;-78
2022/01/30 07:49:30;;;;;;;6.28;1.50;;;4.90;89.90;;;;;;5033761;28;20407;-78
2022/01/30 07:51:55;;;;;;;7.55;2.72;;;4.90;90.00;;;;;;5033722;28;20060;-78
2022/01/30 07:54:21;;;;;;;5.70;2.20;;;5.00;89.80;;;;;;5015764;28;20070;-78
2022/01/30 07:56:47;;;;;;;7.72;1.75;;;5.00;89.60;;;;;;5033505;28;20040;-77
2022/01/30 07:59:12;;;;;;;5.65;2.08;;;5.10;89.30;;;;;;5033599;28;20037;-77
2022/01/30 08:01:38;;;;;;;8.27;2.45;;;5.10;89.10;;;;;;5033513;28;20536;-77
2022/01/30 08:04:06;;;;;;;10.35;2.47;;;5.20;88.90;;;;;;5032824;28;20470;-77
2022/01/30 08:06:35;;;;;;;7.07;2.00;;;5.20;88.40;;;;;;5033213;28;20025;-77
2022/01/30 08:09:02;;;;;;;10.52;1.80;;;5.30;88.30;;;;;;5033326;28;20037;-78
2022/01/30 08:11:27;;;;;;;5.55;1.75;;;5.30;88.10;;;;;;5033283;28;20425;-78
2022/01/30 08:13:53;;;;;;;3.92;1.92;;;5.40;87.60;;;;;;5015392;28;20026;-78
2022/01/30 08:16:20;;;;;;;6.47;2.35;;;5.40;87.10;;;;;;5033186;28;20406;-77
2022/01/30 08:18:46;;;;;;;9.45;2.80;;;5.40;87.10;;;;;;5033158;28;20048;-77
2022/01/30 08:21:11;;;;;;;7.35;3.00;;;5.50;87.40;;;;;;5015456;28;20421;-77
2022/01/30 08:23:37;;;;;;;14.40;3.97;;;5.50;87.40;;;;;;5033189;28;20433;-76
2022/01/30 08:26:02;;;;;;;7.57;3.45;;;5.60;87.00;;;;;;5032972;28;20034;-76
2022/01/30 08:28:28;;;;;;;7.97;3.35;;;5.60;86.60;;;;;;5033142;28;20465;-77
2022/01/30 08:30:54;;;;;;;8.77;3.15;;;5.70;86.40;;;;;;5033006;28;20474;-77
2022/01/30 08:33:20;;;;;;;6.90;2.80;;;5.70;86.10;;;;;;5015244;28;20386;-77
2022/01/30 08:35:46;;;;;;;7.70;2.28;;;5.80;85.70;;;;;;5032946;28;20029;-77
2022/01/30 08:38:15;;;;;;;4.68;1.83;;;5.80;85.30;;;;;;5033024;28;20029;-77
2022/01/30 08:40:40;;;;;;;12.60;2.58;;;5.90;85.10;;;;;;5033111;28;20029;-78
2022/01/30 08:43:06;;;;;;;7.95;2.20;;;5.90;84.70;;;;;;5032894;28;20553;-76
2022/01/30 08:45:31;;;;;;;7.82;2.20;;;5.80;84.40;;;;;;5015045;28;20029;-77
2022/01/30 08:47:57;;;;;;;11.68;2.40;;;5.80;84.80;;;;;;5032761;28;20037;-80
2022/01/30 08:50:24;;;;;;;11.30;2.10;;;6.10;88.50;;;;;;5015155;28;20382;-81
2022/01/30 08:52:50;;;;;;;4.95;1.48;;;6.60;83.80;;;;;;5015141;28;20028;-81
2022/01/30 08:55:16;;;;;;;6.85;2.00;;;7.10;80.90;;;;;;5015084;28;20018;-81
2022/01/30 08:57:42;;;;;;;9.73;2.13;;;7.20;78.50;;;;;;5015063;28;20363;-80
2022/01/30 09:00:17;;;;;;;7.30;1.90;;;7.40;78.00;;;;;;5032873;28;20025;-80
2022/01/30 09:02:43;;;;;;;6.32;2.15;;;7.70;77.00;;;;;;5015550;28;20025;-79
2022/01/30 09:05:11;;;;;;;9.88;2.45;;;8.00;74.80;;;;;;5015807;28;20033;-84
2022/01/30 09:07:38;;;;;;;5.60;2.30;;;8.10;72.50;;;;;;5032585;28;20111;-82
2022/01/30 09:10:06;;;;;;;13.52;4.43;;;8.00;72.20;;;;;;5032823;28;20014;-83
2022/01/30 09:12:34;;;;;;;12.90;2.72;;;7.50;72.50;;;;;;5032684;28;20060;-82
2022/01/30 09:15:00;;;;;;;11.85;2.33;;;7.60;71.60;;;;;;5016915;28;20045;-84
2022/01/30 09:17:28;;;;;;;7.85;2.40;;;7.30;73.60;;;;;;5036835;28;20030;-83
2022/01/30 09:19:53;;;;;;;11.40;2.25;;;7.00;74.20;;;;;;5018928;28;20021;-86
2022/01/30 09:22:19;;;;;;;8.48;2.78;;;7.20;74.50;;;;;;5036790;28;20040;-81
2022/01/30 09:24:46;;;;;;;10.52;2.65;;;7.60;73.40;;;;;;5036523;28;20194;-81
2022/01/30 09:27:12;;;;;;;9.40;2.83;;;7.80;72.00;;;;;;5018606;28;20056;-79
2022/01/30 09:29:40;;;;;;;13.40;3.80;;;8.00;70.50;;;;;;5036204;28;20413;-79
2022/01/30 09:32:07;;;;;;;13.20;2.55;;;8.00;70.10;;;;;;5036435;28;20032;-78
2022/01/30 09:34:33;;;;;;;7.90;2.47;;;7.80;71.70;;;;;;5036515;28;20026;-78
2022/01/30 09:36:59;;;;;;;12.60;2.50;;;8.10;70.70;;;;;;5036176;28;20130;-78
2022/01/30 09:39:25;;;;;;;9.32;2.88;;;7.80;70.20;;;;;;5036141;28;20025;-78
2022/01/30 09:41:52;;;;;;;9.95;3.17;;;7.40;71.80;;;;;;5036024;28;20052;-78
2022/01/30 09:44:19;;;;;;;12.25;2.92;;;7.00;74.00;;;;;;5036037;28;20029;-78
2022/01/30 09:46:45;;;;;;;8.48;2.38;;;7.00;74.20;;;;;;5035894;28;20034;-78
2022/01/30 09:49:12;;;;;;;11.35;2.55;;;7.10;72.90;;;;;;5036055;28;20074;-78
2022/01/30 09:51:39;;;;;;;12.80;3.15;;;7.20;72.10;;;;;;5018282;28;20486;-78
2022/01/30 09:54:06;;;;;;;12.40;2.63;;;7.20;73.10;;;;;;5018161;28;20025;-77
2022/01/30 09:56:32;;;;;;;12.85;3.08;;;7.30;73.20;;;;;;5035926;28;20028;-78
2022/01/30 09:58:58;;;;;;;6.03;2.10;;;7.20;71.80;;;;;;5035732;28;20112;-78
2022/01/30 10:01:36;;;;;;;15.52;4.13;;;7.40;71.50;;;;;;5035792;28;20045;-78
2022/01/30 10:04:04;;;;;;;16.15;2.65;;;7.60;71.70;;;;;;5035815;28;20045;-78
2022/01/30 10:06:37;;;;;;;12.80;2.58;;;7.50;71.50;;;;;;5035602;28;20028;-78
2022/01/30 10:09:35;;;;;;;18.05;3.80;;;7.40;72.20;;;;;;5017887;28;20056;-78
2022/01/30 10:12:15;;;;;;;11.80;3.33;;;7.30;72.20;;;;;;5023985;28;20042;-78
2022/01/30 10:15:16;;;;;;;19.13;3.55;;;7.20;72.50;;;;;;5035329;28;20022;-78
2022/01/30 10:17:48;;;;;;;10.20;2.60;;;7.50;72.10;;;;;;5035525;28;20383;-79
2022/01/30 10:20:16;;;;;;;7.90;2.45;;;7.70;71.10;;;;;;5035346;28;20053;-79
2022/01/30 10:22:53;;;;;;;10.90;2.25;;;7.70;70.10;;;;;;5017647;28;20060;-78
2022/01/30 10:25:21;;;;;;;14.13;3.17;;;7.70;69.70;;;;;;5035003;28;20036;-77
2022/01/30 10:27:47;;;;;;;11.07;2.63;;;7.50;69.80;;;;;;5016956;28;20453;-79
2022/01/30 10:30:20;;;;;;;6.70;2.17;;;7.80;68.90;;;;;;5017466;28;20022;-78
2022/01/30 10:32:56;;;;;;;12.68;2.63;;;7.90;67.40;;;;;;5035096;28;20112;-77
2022/01/30 10:35:23;;;;;;;14.60;3.08;;;7.80;67.60;;;;;;5035197;28;20026;-78
2022/01/30 10:37:48;;;;;;;14.70;2.78;;;7.70;66.30;;;;;;5035013;28;20087;-79
2022/01/30 10:40:19;;;;;;;11.43;2.88;;;7.80;66.20;;;;;;5035108;28;20022;-78
2022/01/30 10:42:52;;;;;;;15.30;2.67;;;7.80;65.20;;;;;;5035156;28;20442;-78
2022/01/30 10:45:32;;;;;;;14.52;2.75;;;7.60;65.50;;;;;;5035103;28;20021;-79
2022/01/30 10:48:23;;;;;;;13.02;3.25;;;7.60;64.40;;;;;;5017008;28;20037;-78
2022/01/30 10:50:49;;;;;;;11.13;3.00;;;7.50;65.70;;;;;;5017061;28;20025;-79
2022/01/30 10:53:24;;;;;;;15.35;2.60;;;7.70;64.50;;;;;;5034870;28;20021;-79
2022/01/30 10:55:50;;;;;;;14.73;3.13;;;8.00;63.10;;;;;;5034976;28;20029;-79
2022/01/30 10:58:21;;;;;;;19.20;2.42;;;7.80;63.20;;;;;;5034869;28;20430;-79
2022/01/30 11:00:52;;;;;;;18.58;3.33;;;7.90;63.00;;;;;;5034799;28;20064;-78
2022/01/30 11:03:37;;;;;;;12.45;2.80;;;8.00;62.50;;;;;;5034973;28;20031;-79
2022/01/30 11:06:04;;;;;;;9.50;2.60;;;8.10;62.80;;;;;;5034793;28;20108;-78
2022/01/30 11:08:33;;;;;;;16.42;3.05;;;7.80;63.70;;;;;;5034834;28;20029;-78
2022/01/30 11:11:00;;;;;;;12.57;2.13;;;8.00;62.40;;;;;;5034702;28;20466;-78
2022/01/30 11:13:32;;;;;;;10.93;2.80;;;8.30;60.60;;;;;;5016960;28;20034;-80
2022/01/30 11:16:55;;;;;;;16.83;2.97;;;8.40;59.40;;;;;;5034450;28;20044;-79
2022/01/30 11:18:49;;;;;;;14.32;2.95;;;8.00;60.30;;;;;;5034369;28;20033;-79
2022/01/30 11:21:21;;;;;;;12.00;3.38;;;7.80;60.50;;;;;;5034555;28;20100;-79
2022/01/30 11:23:48;;;;;;;14.88;3.00;;;7.50;61.80;;;;;;5034560;28;20028;-79
2022/01/30 11:26:14;;;;;;;13.32;2.72;;;7.50;61.90;;;;;;5035237;28;20032;-78
2022/01/30 11:28:40;;;;;;;17.05;2.38;;;7.80;58.90;;;;;;5017240;28;20038;-79
2022/01/30 11:31:06;;;;;;;13.65;2.97;;;8.00;57.40;;;;;;5034348;28;20021;-80
2022/01/30 11:33:32;;;;;;;10.05;2.88;;;8.10;56.80;;;;;;5034256;28;20029;-84
2022/01/30 11:35:58;;;;;;;13.75;3.00;;;8.00;61.30;;;;;;5016693;28;20025;-79
2022/01/30 11:38:24;;;;;;;15.32;2.95;;;8.60;58.80;;;;;;5034540;28;20018;-81
2022/01/30 11:41:12;;;;;;;9.85;2.13;;;9.20;56.40;;;;;;5016416;28;20048;-77
2022/01/30 11:43:37;;;;;;;10.65;2.58;;;9.90;55.80;;;;;;5034156;28;20486;-82
2022/01/30 11:46:15;;;;;;;16.05;2.95;;;10.10;52.40;;;;;;5016397;28;20097;-81
2022/01/30 11:48:41;;;;;;;9.88;2.30;;;10.60;50.20;;;;;;5034285;28;20080;-81
2022/01/30 11:51:08;;;;;;;10.38;2.47;;;10.50;48.70;;;;;;5034027;28;20363;-81
2022/01/30 11:53:33;;;;;;;13.35;3.45;;;9.80;47.50;;;;;;5033744;28;20144;-81
2022/01/30 11:56:01;;;;;;;13.85;3.13;;;9.30;50.40;;;;;;5033853;28;20060;-80
2022/01/30 11:58:30;;;;;;;14.05;2.67;;;8.80;52.50;;;;;;5034052;28;20033;-80
2022/01/30 12:00:58;;;;;;;12.15;2.83;;;8.60;53.50;;;;;;5033690;28;20033;-79
2022/01/30 12:03:28;;;;;;;12.85;2.53;;;8.70;53.10;;;;;;5016005;28;20017;-81
2022/01/30 12:05:56;;;;;;;15.45;2.97;;;8.90;53.30;;;;;;5034460;28;20057;-79
2022/01/30 12:08:44;;;;;;;12.40;2.90;;;9.10;52.80;;;;;;5018243;28;20398;-81
2022/01/30 12:11:34;;;;;;;13.85;3.15;;;8.80;53.20;;;;;;5035301;28;20032;-78
2022/01/30 12:14:18;;;;;;;16.88;3.15;;;9.40;52.40;;;;;;5034702;28;20025;-81
2022/01/30 12:16:45;;;;;;;11.80;2.67;;;9.60;50.80;;;;;;5015532;28;20083;-79
2022/01/30 12:19:12;;;;;;;16.13;3.00;;;10.10;49.80;;;;;;5015925;28;20117;-79
2022/01/30 12:21:38;;;;;;;13.00;2.33;;;10.50;47.50;;;;;;5033191;28;20036;-79
2022/01/30 12:24:23;;;;;;;13.65;3.50;;;10.30;48.10;;;;;;5033654;28;20033;-80
2022/01/30 12:26:50;;;;;;;12.35;2.80;;;10.00;49.20;;;;;;5033075;28;20032;-79
2022/01/30 12:29:41;;;;;;;14.75;2.83;;;9.40;51.50;;;;;;5015514;28;20029;-82
2022/01/30 12:32:22;;;;;;;12.55;2.60;;;9.10;52.10;;;;;;5034513;28;20482;-81
2022/01/30 12:34:57;;;;;;;16.08;3.70;;;8.20;54.40;;;;;;5015748;28;20028;-80
2022/01/30 12:37:27;;;;;;;8.95;2.33;;;8.50;55.00;;;;;;5033608;28;20032;-79
2022/01/30 12:39:54;;;;;;;14.15;2.47;;;8.50;54.10;;;;;;5033602;28;20022;-79
2022/01/30 12:42:21;;;;;;;14.35;2.80;;;8.50;54.10;;;;;;5033349;28;20036;-79
2022/01/30 12:44:48;;;;;;;14.95;3.50;;;8.40;54.10;;;;;;5033009;28;20022;-80
2022/01/30 12:47:15;;;;;;;13.75;2.55;;;8.30;55.00;;;;;;5033146;28;20041;-80
2022/01/30 12:49:49;;;;;;;12.38;3.55;;;8.00;55.90;;;;;;5034000;28;20105;-80
2022/01/30 12:52:51;;;;;;;22.58;3.83;;;7.70;56.90;;;;;;5035659;28;20022;-80
2022/01/30 12:55:12;;;;;;;14.85;3.28;;;7.90;56.70;;;;;;5030930;28;20555;-81
2022/01/30 12:57:40;;;;;;;17.15;3.72;;;8.30;55.80;;;;;;5039644;28;20033;-79
2022/01/30 13:00:08;;;;;;;15.25;3.40;;;8.40;55.20;;;;;;5034147;28;20470;-79
2022/01/30 13:02:36;;;;;;;11.63;3.30;;;8.50;54.50;;;;;;5033433;28;20029;-80
2022/01/30 13:05:10;;;;;;;15.13;3.22;;;9.50;53.70;;;;;;5033546;28;20033;-79
2022/01/30 13:07:36;;;;;;;15.30;3.33;;;12.00;46.40;;;;;;5033424;28;20041;-79
2022/01/30 13:10:13;;;;;;;13.70;3.13;;;12.70;42.00;;;;;;5015282;28;20113;-79
2022/01/30 13:12:42;;;;;;;10.13;2.80;;;12.10;42.40;;;;;;5032990;28;20072;-81
2022/01/30 13:15:13;;;;;;;18.05;4.55;;;11.40;42.60;;;;;;5032784;28;20041;-80
2022/01/30 13:17:39;;;;;;;12.82;3.42;;;10.80;45.80;;;;;;5033123;28;20026;-79
2022/01/30 13:20:09;;;;;;;15.38;3.53;;;10.00;46.50;;;;;;5032974;28;20386;-80
2022/01/30 13:22:38;;;;;;;17.58;2.65;;;9.40;49.20;;;;;;5032972;28;20037;-80
2022/01/30 13:25:09;;;;;;;11.77;2.85;;;9.80;48.20;;;;;;5032955;28;20474;-81
2022/01/30 13:27:40;;;;;;;11.68;2.50;;;10.30;47.10;;;;;;5032688;28;20107;-80
2022/01/30 13:30:07;;;;;;;8.57;2.42;;;11.60;43.90;;;;;;5032738;28;20018;-79
2022/01/30 13:32:32;;;;;;;8.80;2.30;;;12.50;40.70;;;;;;5032962;28;20045;-80
2022/01/30 13:34:58;;;;;;;7.30;2.25;;;14.40;36.90;;;;;;5015088;28;20049;-80
2022/01/30 13:37:24;;;;;;;13.88;3.03;;;15.20;33.90;;;;;;5034720;28;20079;-80
2022/01/30 13:48:11;;;;;;;10.90;3.20;;;18.20;27.20;;;;;;5032451;28;20029;-81
2022/01/30 13:51:03;;;;;;;13.30;3.15;;;17.20;27.80;;;;;;5032743;28;20489;-80
2022/01/30 13:53:29;;;;;;;8.63;2.38;;;16.90;29.20;;;;;;5034792;28;20053;-80
2022/01/30 13:56:09;;;;;;;10.88;2.60;;;13.70;33.40;;;;;;5039347;28;20024;-78